Flight Track Log - Related Links

Times and Time Zones

All times are in EDT time to prevent confusion due to time zone crossing. See the CTL13 flight status page for this flight to view local times or setup timezone preferences in your user account.

Time Position Orientation Groundspeed Altitude Reporting Facility
EDT Latitude Longitude Course Direction KTS MPH feet Rate Location/Type
Tue 08:15:41 PM 39.9500 -86.3000 339° North 150 173 2,900  Level Indianapolis TRACON
Tue 08:16:16 PM 39.9633 -86.3161 317° Northwest 147 169 3,200 557 Climbing Chicago Center
Tue 08:17:18 PM 40.0044 -86.3489 329° Northwest 146 168 3,800 484 Climbing Chicago Center
Tue 08:18:20 PM 40.0394 -86.3764 329° Northwest 146 168 4,200 365 Climbing Chicago Center
Tue 08:19:13 PM 40.0672 -86.3981 329° Northwest 148 170 4,500 365 Climbing Indianapolis Center
Tue 08:20:00 PM 40.0748 -86.1948 15° North  Level FlightAware Approximate
Tue 08:20:15 PM 40.1022 -86.4267 328° Northwest 148 170 4,900  Level Indianapolis Center
Tue 08:21:16 PM 40.1383 -86.4556 329° Northwest 150 173 5,200 439 Climbing Indianapolis Center
Tue 08:22:18 PM 40.1806 -86.4886 329° Northwest 149 171 5,800 358 Climbing Indianapolis Center
Tue 08:23:30 PM 40.2236 -86.5258 327° Northwest 151 174 6,000 90 Climbing Chicago Center
Tue 08:24:31 PM 40.2600 -86.5583 326° Northwest 161 185 6,000  Level Chicago Center
Tue 08:25:34 PM 40.2992 -86.5881 330° Northwest 162 186 6,000  Level Chicago Center
Tue 08:26:32 PM 40.3372 -86.6203 327° Northwest 163 188 6,000  Level Chicago Center
Tue 08:27:33 PM 40.3778 -86.6528 329° Northwest 161 185 6,000  Level Chicago Center
Tue 08:28:33 PM 40.4183 -86.6825 331° Northwest 161 185 6,000  Level Chicago Center
Tue 08:29:34 PM 40.4569 -86.7122 330° Northwest 164 189 6,000  Level Chicago Center
Tue 08:30:34 PM 40.4953 -86.7447 327° Northwest 161 185 6,000  Level Chicago Center
Tue 08:31:35 PM 40.5339 -86.7719 332° Northwest 162 186 6,000  Level Chicago Center
Tue 08:32:48 PM 40.5769 -86.8058 329° Northwest 161 185 6,000 -44 Level Chicago Center
Tue 08:33:51 PM 40.6156 -86.8361 329° Northwest 162 186 5,900 -48 Descending Chicago Center
Tue 08:34:53 PM 40.6633 -86.8714 331° Northwest 164 189 5,900  Level Chicago Center
Tue 08:35:55 PM 40.7017 -86.9047 327° Northwest 164 189 5,900  Level Chicago Center
Tue 08:36:57 PM 40.7394 -86.9406 324° Northwest 164 189 5,900  Level Chicago Center
Tue 08:37:59 PM 40.7781 -86.9700 330° Northwest 163 188 5,900  Level Chicago Center
Tue 08:39:01 PM 40.8178 -87.0011 329° Northwest 165 190 5,900  Level Chicago Center
Tue 08:40:03 PM 40.8636 -87.0389 328° Northwest 164 189 5,900  Level Chicago Center
Tue 08:41:05 PM 40.9019 -87.0719 327° Northwest 164 189 5,900  Level Chicago Center
Tue 08:42:07 PM 40.9408 -87.1022 330° Northwest 165 190 5,900 48 Level Chicago Center
Tue 08:43:09 PM 40.9789 -87.1333 328° Northwest 162 186 6,000 -97 Climbing Chicago Center
Tue 08:44:11 PM 41.0181 -87.1661 328° Northwest 165 190 5,700 -484 Descending Chicago Center
Tue 08:45:13 PM 41.0692 -87.2083 328° Northwest 178 205 5,000 -581 Descending Chicago Center
Tue 08:46:15 PM 41.1125 -87.2444 328° Northwest 184 212 4,500 -484 Descending Chicago Center
Tue 08:47:17 PM 41.1567 -87.2808 328° Northwest 186 214 4,000 -240 Descending Chicago Center
Tue 08:48:20 PM 41.1978 -87.3147 328° Northwest 182 209 4,000  Level Chicago Center
Tue 08:49:22 PM 41.2378 -87.3481 328° Northwest 177 204 4,000 48 Level Chicago Center
Tue 08:50:24 PM 41.2847 -87.3908 326° Northwest 173 199 4,100 48 Climbing Chicago Center
Tue 08:51:26 PM 41.3250 -87.4247 328° Northwest 173 199 4,100  Level Chicago Center
Tue 08:52:28 PM 41.3653 -87.4569 329° Northwest 170 196 4,100 -48 Level Chicago Center
Tue 08:53:30 PM 41.4061 -87.4889 330° Northwest 172 198 4,000 -48 Descending Chicago Center
Tue 08:54:32 PM 41.4486 -87.5114 338° Northwest 173 199 4,000  Level Chicago Center
Tue 08:55:34 PM 41.5039 -87.5153 357° North 169 194 4,000 -387 Level Chicago Center
Tue 08:56:36 PM 41.5517 -87.5308 346° North 186 214 3,200 -435 Descending Chicago Center
Tue 08:57:38 PM 41.5731 -87.5944 294° West 186 214 3,100 -33 Descending Chicago Center
Tue 08:59:36 PM 41.5833 -87.7333 276° West 178 205 3,100 -169 Level Chicago TRACON
Tue 09:00:36 PM 41.5833 -87.7833 270° West 191 220 2,600 -286 Descending Chicago TRACON
Tue 09:01:42 PM 41.6167 -87.8500 304° West 174 200 2,500 -53 Descending Chicago TRACON
Tue 09:02:30 PM 41.6500 -87.8833 323° Northwest 170 196 2,500  Level Chicago TRACON
Tue 09:02:49 PM 41.6536 -87.8933 296° West 167 192 2,500  Level Chicago Center
Tue 09:03:36 PM 41.6833 -87.8667 34° Northeast 163 188 2,500 56 Level Chicago TRACON
Tue 09:04:36 PM 41.7167 -87.8333 37° Northeast 149 171 2,600 -368 Climbing Chicago TRACON
Tue 09:05:30 PM 41.7500 -87.8000 37° Northeast 135 155 1,800 -850 Descending Chicago TRACON
Tue 09:06:36 PM 41.7667 -87.7667 56° Northeast 115 132 900 -818 Descending Chicago TRACON
Tue 09:08:00 PM 41.7833 -87.7500 37° Northeast  Level FlightAware Approximate

Login

Don't have an account? Register now (free) for customized features, flight alerts, and more!